sensor_id;sensor_type;location;lat;lon;timestamp;temperature;humidity
52769;DHT22;40471;44.534;18.644;2024-03-02T00:00:21;11.10;99.90
52769;DHT22;40471;44.534;18.644;2024-03-02T00:02:49;11.10;99.90
52769;DHT22;40471;44.534;18.644;2024-03-02T00:05:19;11.10;99.90
52769;DHT22;40471;44.534;18.644;2024-03-02T00:07:55;11.10;99.90
52769;DHT22;40471;44.534;18.644;2024-03-02T00:10:27;11.10;99.90
52769;DHT22;40471;44.534;18.644;2024-03-02T00:12:57;11.10;99.90
52769;DHT22;40471;44.534;18.644;2024-03-02T00:18:14;11.10;99.90
52769;DHT22;40471;44.534;18.644;2024-03-02T00:20:42;11.10;99.90
52769;DHT22;40471;44.534;18.644;2024-03-02T00:23:09;11.10;99.90
52769;DHT22;40471;44.534;18.644;2024-03-02T00:25:48;11.00;99.90
52769;DHT22;40471;44.534;18.644;2024-03-02T00:28:16;11.00;99.90
52769;DHT22;40471;44.534;18.644;2024-03-02T00:30:55;11.00;99.90
52769;DHT22;40471;44.534;18.644;2024-03-02T00:33:23;11.00;99.90
52769;DHT22;40471;44.534;18.644;2024-03-02T00:35:49;11.00;99.90
52769;DHT22;40471;44.534;18.644;2024-03-02T00:38:15;10.90;99.90
52769;DHT22;40471;44.534;18.644;2024-03-02T00:40:44;10.90;99.90
52769;DHT22;40471;44.534;18.644;2024-03-02T00:46:07;10.90;99.90
52769;DHT22;40471;44.534;18.644;2024-03-02T00:48:33;10.90;99.90
52769;DHT22;40471;44.534;18.644;2024-03-02T00:51:02;10.80;99.90
52769;DHT22;40471;44.534;18.644;2024-03-02T00:53:31;10.80;99.90
52769;DHT22;40471;44.534;18.644;2024-03-02T00:56:01;10.80;99.90
52769;DHT22;40471;44.534;18.644;2024-03-02T00:58:27;10.80;99.90
52769;DHT22;40471;44.534;18.644;2024-03-02T01:00:53;10.70;99.90
52769;DHT22;40471;44.534;18.644;2024-03-02T01:03:18;10.70;99.90
52769;DHT22;40471;44.534;18.644;2024-03-02T01:05:45;10.60;99.90
52769;DHT22;40471;44.534;18.644;2024-03-02T01:08:11;10.70;99.90
52769;DHT22;40471;44.534;18.644;2024-03-02T01:10:37;10.70;99.90
52769;DHT22;40471;44.534;18.644;2024-03-02T01:13:02;10.70;99.90
52769;DHT22;40471;44.534;18.644;2024-03-02T01:15:28;10.70;99.90
52769;DHT22;40471;44.534;18.644;2024-03-02T01:17:54;10.70;99.90
52769;DHT22;40471;44.534;18.644;2024-03-02T01:20:20;10.80;99.90
52769;DHT22;40471;44.534;18.644;2024-03-02T01:22:47;10.80;99.90
52769;DHT22;40471;44.534;18.644;2024-03-02T01:25:13;10.80;99.90
52769;DHT22;40471;44.534;18.644;2024-03-02T01:27:39;10.80;99.90
52769;DHT22;40471;44.534;18.644;2024-03-02T01:30:05;10.70;99.90
52769;DHT22;40471;44.534;18.644;2024-03-02T01:32:31;10.60;99.90
52769;DHT22;40471;44.534;18.644;2024-03-02T01:34:57;10.60;99.90
52769;DHT22;40471;44.534;18.644;2024-03-02T01:37:22;10.60;99.90
52769;DHT22;40471;44.534;18.644;2024-03-02T01:39:48;10.60;99.90
52769;DHT22;40471;44.534;18.644;2024-03-02T01:42:14;10.60;99.90
52769;DHT22;40471;44.534;18.644;2024-03-02T01:44:40;10.60;99.90
52769;DHT22;40471;44.534;18.644;2024-03-02T01:47:06;10.60;99.90
52769;DHT22;40471;44.534;18.644;2024-03-02T01:49:32;10.60;99.90
52769;DHT22;40471;44.534;18.644;2024-03-02T01:51:59;10.50;99.90
52769;DHT22;40471;44.534;18.644;2024-03-02T01:54:25;10.50;99.90
52769;DHT22;40471;44.534;18.644;2024-03-02T01:56:51;10.50;99.90
52769;DHT22;40471;44.534;18.644;2024-03-02T01:59:16;10.50;99.90
52769;DHT22;40471;44.534;18.644;2024-03-02T02:01:42;10.50;99.90
52769;DHT22;40471;44.534;18.644;2024-03-02T02:04:08;10.50;99.90
52769;DHT22;40471;44.534;18.644;2024-03-02T02:06:34;10.50;99.90
52769;DHT22;40471;44.534;18.644;2024-03-02T02:09:00;10.50;99.90
52769;DHT22;40471;44.534;18.644;2024-03-02T02:11:26;10.50;99.90
52769;DHT22;40471;44.534;18.644;2024-03-02T02:13:52;10.40;99.90
52769;DHT22;40471;44.534;18.644;2024-03-02T02:16:20;10.40;99.90
52769;DHT22;40471;44.534;18.644;2024-03-02T02:18:46;10.40;99.90
52769;DHT22;40471;44.534;18.644;2024-03-02T02:21:12;10.40;99.90
52769;DHT22;40471;44.534;18.644;2024-03-02T02:23:38;10.30;99.90
52769;DHT22;40471;44.534;18.644;2024-03-02T02:26:04;10.30;99.90
52769;DHT22;40471;44.534;18.644;2024-03-02T02:28:30;10.30;99.90
52769;DHT22;40471;44.534;18.644;2024-03-02T02:30:56;10.30;99.90
52769;DHT22;40471;44.534;18.644;2024-03-02T02:33:22;10.40;99.90
52769;DHT22;40471;44.534;18.644;2024-03-02T02:35:47;10.30;99.90
52769;DHT22;40471;44.534;18.644;2024-03-02T02:38:13;10.30;99.90
52769;DHT22;40471;44.534;18.644;2024-03-02T02:40:39;10.40;99.90
52769;DHT22;40471;44.534;18.644;2024-03-02T02:43:05;10.40;99.90
52769;DHT22;40471;44.534;18.644;2024-03-02T02:45:32;10.40;99.90
52769;DHT22;40471;44.534;18.644;2024-03-02T02:47:58;10.40;99.90
52769;DHT22;40471;44.534;18.644;2024-03-02T02:50:23;10.40;99.90
52769;DHT22;40471;44.534;18.644;2024-03-02T02:52:49;10.40;99.90
52769;DHT22;40471;44.534;18.644;2024-03-02T02:55:15;10.30;99.90
52769;DHT22;40471;44.534;18.644;2024-03-02T02:57:42;10.30;99.90
52769;DHT22;40471;44.534;18.644;2024-03-02T03:00:10;10.20;99.90
52769;DHT22;40471;44.534;18.644;2024-03-02T03:02:39;10.30;99.90
52769;DHT22;40471;44.534;18.644;2024-03-02T03:05:11;10.20;99.90
52769;DHT22;40471;44.534;18.644;2024-03-02T03:07:39;10.10;99.90
52769;DHT22;40471;44.534;18.644;2024-03-02T03:10:06;10.10;99.90
52769;DHT22;40471;44.534;18.644;2024-03-02T03:12:33;10.10;99.90
52769;DHT22;40471;44.534;18.644;2024-03-02T03:14:59;10.10;99.90
52769;DHT22;40471;44.534;18.644;2024-03-02T03:17:25;10.10;99.90
52769;DHT22;40471;44.534;18.644;2024-03-02T03:19:52;10.00;99.90
52769;DHT22;40471;44.534;18.644;2024-03-02T03:22:18;10.10;99.90
52769;DHT22;40471;44.534;18.644;2024-03-02T03:24:43;10.00;99.90
52769;DHT22;40471;44.534;18.644;2024-03-02T03:27:10;10.10;99.90
52769;DHT22;40471;44.534;18.644;2024-03-02T03:29:36;10.10;99.90
52769;DHT22;40471;44.534;18.644;2024-03-02T03:32:02;10.10;99.90
52769;DHT22;40471;44.534;18.644;2024-03-02T03:34:28;10.00;99.90
52769;DHT22;40471;44.534;18.644;2024-03-02T03:36:54;10.10;99.90
52769;DHT22;40471;44.534;18.644;2024-03-02T03:39:20;10.10;99.90
52769;DHT22;40471;44.534;18.644;2024-03-02T03:41:46;10.10;99.90
52769;DHT22;40471;44.534;18.644;2024-03-02T03:44:40;10.10;99.90
52769;DHT22;40471;44.534;18.644;2024-03-02T03:47:07;10.00;99.90
52769;DHT22;40471;44.534;18.644;2024-03-02T03:49:32;10.00;99.90
52769;DHT22;40471;44.534;18.644;2024-03-02T03:51:58;10.00;99.90
52769;DHT22;40471;44.534;18.644;2024-03-02T03:54:24;10.00;99.90
52769;DHT22;40471;44.534;18.644;2024-03-02T03:56:49;9.90;99.90
52769;DHT22;40471;44.534;18.644;2024-03-02T03:59:15;9.90;99.90
52769;DHT22;40471;44.534;18.644;2024-03-02T04:01:41;9.90;99.90
52769;DHT22;40471;44.534;18.644;2024-03-02T04:04:06;9.90;99.90
52769;DHT22;40471;44.534;18.644;2024-03-02T04:06:32;9.90;99.90
52769;DHT22;40471;44.534;18.644;2024-03-02T04:08:58;9.90;99.90
52769;DHT22;40471;44.534;18.644;2024-03-02T04:11:23;9.90;99.90
52769;DHT22;40471;44.534;18.644;2024-03-02T04:13:49;9.90;99.90
52769;DHT22;40471;44.534;18.644;2024-03-02T04:16:15;9.90;99.90
52769;DHT22;40471;44.534;18.644;2024-03-02T04:18:40;9.90;99.90
52769;DHT22;40471;44.534;18.644;2024-03-02T04:21:06;9.90;99.90
52769;DHT22;40471;44.534;18.644;2024-03-02T04:23:32;9.90;99.90
52769;DHT22;40471;44.534;18.644;2024-03-02T04:25:58;9.80;99.90
52769;DHT22;40471;44.534;18.644;2024-03-02T04:28:23;9.70;99.90
52769;DHT22;40471;44.534;18.644;2024-03-02T04:30:49;9.80;99.90
52769;DHT22;40471;44.534;18.644;2024-03-02T04:33:15;9.70;99.90
52769;DHT22;40471;44.534;18.644;2024-03-02T04:35:40;9.60;99.90
52769;DHT22;40471;44.534;18.644;2024-03-02T04:38:06;9.50;99.90
52769;DHT22;40471;44.534;18.644;2024-03-02T04:40:32;9.50;99.90
52769;DHT22;40471;44.534;18.644;2024-03-02T04:42:57;9.30;99.90
52769;DHT22;40471;44.534;18.644;2024-03-02T04:45:24;9.30;99.90
52769;DHT22;40471;44.534;18.644;2024-03-02T04:47:50;9.20;99.90
52769;DHT22;40471;44.534;18.644;2024-03-02T04:50:16;9.20;99.90
52769;DHT22;40471;44.534;18.644;2024-03-02T04:52:41;9.20;99.90
52769;DHT22;40471;44.534;18.644;2024-03-02T04:55:07;9.20;99.90
52769;DHT22;40471;44.534;18.644;2024-03-02T04:57:45;9.20;99.90
52769;DHT22;40471;44.534;18.644;2024-03-02T05:00:11;9.20;99.90
52769;DHT22;40471;44.534;18.644;2024-03-02T05:02:38;9.10;99.90
52769;DHT22;40471;44.534;18.644;2024-03-02T05:05:04;9.10;99.90
52769;DHT22;40471;44.534;18.644;2024-03-02T05:07:30;9.10;99.90
52769;DHT22;40471;44.534;18.644;2024-03-02T05:09:55;9.00;99.90
52769;DHT22;40471;44.534;18.644;2024-03-02T05:12:21;9.00;99.90
52769;DHT22;40471;44.534;18.644;2024-03-02T05:15:06;8.90;99.90
52769;DHT22;40471;44.534;18.644;2024-03-02T05:17:32;8.90;99.90
52769;DHT22;40471;44.534;18.644;2024-03-02T05:19:58;8.90;99.90
52769;DHT22;40471;44.534;18.644;2024-03-02T05:22:24;8.90;99.90
52769;DHT22;40471;44.534;18.644;2024-03-02T05:24:50;8.90;99.90
52769;DHT22;40471;44.534;18.644;2024-03-02T05:27:15;8.90;99.90
52769;DHT22;40471;44.534;18.644;2024-03-02T05:29:41;8.90;99.90
52769;DHT22;40471;44.534;18.644;2024-03-02T05:32:07;8.90;99.90
52769;DHT22;40471;44.534;18.644;2024-03-02T05:34:32;8.80;99.90
52769;DHT22;40471;44.534;18.644;2024-03-02T05:37:01;8.80;99.90
52769;DHT22;40471;44.534;18.644;2024-03-02T05:39:26;8.90;99.90
52769;DHT22;40471;44.534;18.644;2024-03-02T05:41:52;8.90;99.90
52769;DHT22;40471;44.534;18.644;2024-03-02T05:44:18;8.90;99.90
52769;DHT22;40471;44.534;18.644;2024-03-02T05:46:45;8.90;99.90
52769;DHT22;40471;44.534;18.644;2024-03-02T05:49:11;9.00;99.90
52769;DHT22;40471;44.534;18.644;2024-03-02T05:51:36;9.00;99.90
52769;DHT22;40471;44.534;18.644;2024-03-02T05:54:02;9.00;99.90
52769;DHT22;40471;44.534;18.644;2024-03-02T05:56:28;9.00;99.90
52769;DHT22;40471;44.534;18.644;2024-03-02T05:58:54;9.00;99.90
52769;DHT22;40471;44.534;18.644;2024-03-02T06:01:45;9.10;99.90
52769;DHT22;40471;44.534;18.644;2024-03-02T06:04:20;9.20;99.90
52769;DHT22;40471;44.534;18.644;2024-03-02T06:06:46;9.20;99.90
52769;DHT22;40471;44.534;18.644;2024-03-02T06:09:12;9.20;99.90
52769;DHT22;40471;44.534;18.644;2024-03-02T06:11:39;9.30;99.90
52769;DHT22;40471;44.534;18.644;2024-03-02T06:14:07;9.40;99.90
52769;DHT22;40471;44.534;18.644;2024-03-02T06:16:33;9.50;99.90
52769;DHT22;40471;44.534;18.644;2024-03-02T06:18:59;9.70;99.90
52769;DHT22;40471;44.534;18.644;2024-03-02T06:21:25;9.80;99.90
52769;DHT22;40471;44.534;18.644;2024-03-02T06:23:51;10.00;99.90
52769;DHT22;40471;44.534;18.644;2024-03-02T06:26:17;10.20;99.90
52769;DHT22;40471;44.534;18.644;2024-03-02T06:28:44;10.50;99.90
52769;DHT22;40471;44.534;18.644;2024-03-02T06:31:10;10.80;99.90
52769;DHT22;40471;44.534;18.644;2024-03-02T06:33:35;11.00;99.90
52769;DHT22;40471;44.534;18.644;2024-03-02T06:36:02;11.40;99.90
52769;DHT22;40471;44.534;18.644;2024-03-02T06:38:28;11.80;99.90
52769;DHT22;40471;44.534;18.644;2024-03-02T06:40:53;12.20;99.90
52769;DHT22;40471;44.534;18.644;2024-03-02T06:43:20;12.50;99.90
52769;DHT22;40471;44.534;18.644;2024-03-02T06:45:49;12.90;99.90
52769;DHT22;40471;44.534;18.644;2024-03-02T06:48:16;13.30;99.90
52769;DHT22;40471;44.534;18.644;2024-03-02T06:50:46;13.60;99.90
52769;DHT22;40471;44.534;18.644;2024-03-02T06:53:13;13.90;99.90
52769;DHT22;40471;44.534;18.644;2024-03-02T06:55:38;14.10;99.90
52769;DHT22;40471;44.534;18.644;2024-03-02T06:58:04;14.40;99.90
52769;DHT22;40471;44.534;18.644;2024-03-02T07:00:30;14.50;99.90
52769;DHT22;40471;44.534;18.644;2024-03-02T07:02:56;14.70;99.90
52769;DHT22;40471;44.534;18.644;2024-03-02T07:05:21;14.80;99.90
52769;DHT22;40471;44.534;18.644;2024-03-02T07:07:47;15.00;99.90
52769;DHT22;40471;44.534;18.644;2024-03-02T07:10:13;15.30;99.90
52769;DHT22;40471;44.534;18.644;2024-03-02T07:12:39;15.60;99.90
52769;DHT22;40471;44.534;18.644;2024-03-02T07:15:05;16.00;99.90
52769;DHT22;40471;44.534;18.644;2024-03-02T07:17:31;16.40;98.40
52769;DHT22;40471;44.534;18.644;2024-03-02T07:19:57;16.90;96.00
52769;DHT22;40471;44.534;18.644;2024-03-02T07:22:23;17.40;92.80
52769;DHT22;40471;44.534;18.644;2024-03-02T07:24:49;18.40;91.00
52769;DHT22;40471;44.534;18.644;2024-03-02T07:27:16;19.50;78.90
52769;DHT22;40471;44.534;18.644;2024-03-02T07:29:41;20.50;75.70
52769;DHT22;40471;44.534;18.644;2024-03-02T07:32:08;20.80;72.50
52769;DHT22;40471;44.534;18.644;2024-03-02T07:34:34;21.80;71.10
52769;DHT22;40471;44.534;18.644;2024-03-02T07:37:00;22.50;67.60
52769;DHT22;40471;44.534;18.644;2024-03-02T07:39:26;22.40;65.40
52769;DHT22;40471;44.534;18.644;2024-03-02T07:41:52;22.30;65.00
52769;DHT22;40471;44.534;18.644;2024-03-02T07:44:18;22.80;64.00
52769;DHT22;40471;44.534;18.644;2024-03-02T07:46:45;22.90;63.80
52769;DHT22;40471;44.534;18.644;2024-03-02T07:49:20;22.70;62.90
52769;DHT22;40471;44.534;18.644;2024-03-02T07:51:45;23.00;63.60
52769;DHT22;40471;44.534;18.644;2024-03-02T07:54:11;22.80;63.50
52769;DHT22;40471;44.534;18.644;2024-03-02T07:56:40;22.90;62.70
52769;DHT22;40471;44.534;18.644;2024-03-02T07:59:06;23.50;62.30
52769;DHT22;40471;44.534;18.644;2024-03-02T08:01:33;23.60;61.90
52769;DHT22;40471;44.534;18.644;2024-03-02T08:04:00;23.80;62.10
52769;DHT22;40471;44.534;18.644;2024-03-02T08:06:27;23.90;61.20
52769;DHT22;40471;44.534;18.644;2024-03-02T08:08:56;23.90;60.00
52769;DHT22;40471;44.534;18.644;2024-03-02T08:11:22;24.50;60.60
52769;DHT22;40471;44.534;18.644;2024-03-02T08:13:48;24.40;59.70
52769;DHT22;40471;44.534;18.644;2024-03-02T08:16:17;24.90;58.80
52769;DHT22;40471;44.534;18.644;2024-03-02T08:18:49;25.10;58.90
52769;DHT22;40471;44.534;18.644;2024-03-02T08:21:15;25.70;59.10
52769;DHT22;40471;44.534;18.644;2024-03-02T08:23:42;26.20;60.20
52769;DHT22;40471;44.534;18.644;2024-03-02T08:26:09;26.10;56.90
52769;DHT22;40471;44.534;18.644;2024-03-02T08:28:45;26.10;59.00
52769;DHT22;40471;44.534;18.644;2024-03-02T08:31:11;26.80;56.50
52769;DHT22;40471;44.534;18.644;2024-03-02T08:33:37;26.00;56.20
52769;DHT22;40471;44.534;18.644;2024-03-02T08:36:03;26.90;56.90
52769;DHT22;40471;44.534;18.644;2024-03-02T08:38:29;26.70;56.90
52769;DHT22;40471;44.534;18.644;2024-03-02T08:40:54;27.50;56.80
52769;DHT22;40471;44.534;18.644;2024-03-02T08:43:20;27.00;58.60
52769;DHT22;40471;44.534;18.644;2024-03-02T08:45:49;27.00;55.70
52769;DHT22;40471;44.534;18.644;2024-03-02T08:48:16;27.50;56.90
52769;DHT22;40471;44.534;18.644;2024-03-02T08:50:41;27.80;57.20
52769;DHT22;40471;44.534;18.644;2024-03-02T08:53:07;27.50;59.90
52769;DHT22;40471;44.534;18.644;2024-03-02T08:55:33;28.40;57.80
52769;DHT22;40471;44.534;18.644;2024-03-02T08:57:59;27.90;56.50
52769;DHT22;40471;44.534;18.644;2024-03-02T09:00:25;27.50;53.20
52769;DHT22;40471;44.534;18.644;2024-03-02T09:02:51;27.60;56.10
52769;DHT22;40471;44.534;18.644;2024-03-02T09:05:16;28.00;53.50
52769;DHT22;40471;44.534;18.644;2024-03-02T09:07:42;27.60;52.90
52769;DHT22;40471;44.534;18.644;2024-03-02T09:10:08;27.90;50.60
52769;DHT22;40471;44.534;18.644;2024-03-02T09:12:35;27.80;50.00
52769;DHT22;40471;44.534;18.644;2024-03-02T09:15:01;27.20;51.50
52769;DHT22;40471;44.534;18.644;2024-03-02T09:17:28;27.60;51.30
52769;DHT22;40471;44.534;18.644;2024-03-02T09:19:54;28.10;49.60
52769;DHT22;40471;44.534;18.644;2024-03-02T09:22:20;28.20;50.10
52769;DHT22;40471;44.534;18.644;2024-03-02T09:24:46;28.20;49.70
52769;DHT22;40471;44.534;18.644;2024-03-02T09:27:12;28.20;49.00
52769;DHT22;40471;44.534;18.644;2024-03-02T09:29:38;28.30;47.70
52769;DHT22;40471;44.534;18.644;2024-03-02T09:32:05;28.20;48.40
52769;DHT22;40471;44.534;18.644;2024-03-02T09:34:31;28.10;47.90
52769;DHT22;40471;44.534;18.644;2024-03-02T09:36:57;28.10;48.60
52769;DHT22;40471;44.534;18.644;2024-03-02T09:39:23;28.10;48.80
52769;DHT22;40471;44.534;18.644;2024-03-02T09:41:50;28.00;48.90
52769;DHT22;40471;44.534;18.644;2024-03-02T09:44:16;28.20;47.30
52769;DHT22;40471;44.534;18.644;2024-03-02T09:46:42;28.40;46.80
52769;DHT22;40471;44.534;18.644;2024-03-02T09:49:10;28.20;47.30
52769;DHT22;40471;44.534;18.644;2024-03-02T09:51:37;28.10;49.00
52769;DHT22;40471;44.534;18.644;2024-03-02T09:54:03;28.30;47.70
52769;DHT22;40471;44.534;18.644;2024-03-02T09:56:29;28.50;47.10
52769;DHT22;40471;44.534;18.644;2024-03-02T09:58:54;28.50;48.20
52769;DHT22;40471;44.534;18.644;2024-03-02T10:01:20;28.60;46.80
52769;DHT22;40471;44.534;18.644;2024-03-02T10:03:47;28.50;46.60
52769;DHT22;40471;44.534;18.644;2024-03-02T10:08:45;28.00;46.10
52769;DHT22;40471;44.534;18.644;2024-03-02T10:11:10;27.80;46.10
52769;DHT22;40471;44.534;18.644;2024-03-02T10:13:36;27.80;46.00
52769;DHT22;40471;44.534;18.644;2024-03-02T10:16:11;27.80;47.00
52769;DHT22;40471;44.534;18.644;2024-03-02T10:18:37;27.90;45.90
52769;DHT22;40471;44.534;18.644;2024-03-02T10:21:13;28.10;47.20
52769;DHT22;40471;44.534;18.644;2024-03-02T10:23:40;28.20;44.40
52769;DHT22;40471;44.534;18.644;2024-03-02T10:26:17;28.10;45.40
52769;DHT22;40471;44.534;18.644;2024-03-02T10:28:47;28.00;45.20
52769;DHT22;40471;44.534;18.644;2024-03-02T10:31:25;28.00;44.00
52769;DHT22;40471;44.534;18.644;2024-03-02T10:33:54;28.00;43.70
52769;DHT22;40471;44.534;18.644;2024-03-02T10:36:21;28.00;43.80
52769;DHT22;40471;44.534;18.644;2024-03-02T10:38:47;28.00;45.70
52769;DHT22;40471;44.534;18.644;2024-03-02T10:41:18;28.00;44.00
52769;DHT22;40471;44.534;18.644;2024-03-02T10:43:45;28.00;43.50
52769;DHT22;40471;44.534;18.644;2024-03-02T10:46:12;28.00;44.50
52769;DHT22;40471;44.534;18.644;2024-03-02T10:48:41;27.20;43.60
52769;DHT22;40471;44.534;18.644;2024-03-02T10:51:09;27.00;45.50
52769;DHT22;40471;44.534;18.644;2024-03-02T10:53:35;27.10;45.10
52769;DHT22;40471;44.534;18.644;2024-03-02T10:56:01;26.90;46.50
52769;DHT22;40471;44.534;18.644;2024-03-02T10:58:32;27.20;45.90
52769;DHT22;40471;44.534;18.644;2024-03-02T11:01:02;27.40;44.90
52769;DHT22;40471;44.534;18.644;2024-03-02T11:03:33;27.40;45.00
52769;DHT22;40471;44.534;18.644;2024-03-02T11:06:00;27.50;44.50
52769;DHT22;40471;44.534;18.644;2024-03-02T11:08:34;27.10;44.70
52769;DHT22;40471;44.534;18.644;2024-03-02T11:11:07;27.10;45.30
52769;DHT22;40471;44.534;18.644;2024-03-02T11:13:38;27.20;45.20
52769;DHT22;40471;44.534;18.644;2024-03-02T11:16:21;27.40;45.50
52769;DHT22;40471;44.534;18.644;2024-03-02T11:18:52;28.00;44.40
52769;DHT22;40471;44.534;18.644;2024-03-02T11:21:18;27.90;44.10
52769;DHT22;40471;44.534;18.644;2024-03-02T11:23:44;27.70;44.20
52769;DHT22;40471;44.534;18.644;2024-03-02T11:26:22;27.40;45.00
52769;DHT22;40471;44.534;18.644;2024-03-02T11:28:49;27.30;45.30
52769;DHT22;40471;44.534;18.644;2024-03-02T11:31:15;27.50;44.30
52769;DHT22;40471;44.534;18.644;2024-03-02T11:33:41;27.20;44.70
52769;DHT22;40471;44.534;18.644;2024-03-02T11:36:07;27.40;45.90
52769;DHT22;40471;44.534;18.644;2024-03-02T11:38:34;27.50;43.30
52769;DHT22;40471;44.534;18.644;2024-03-02T11:41:02;27.70;44.00
52769;DHT22;40471;44.534;18.644;2024-03-02T11:43:30;27.70;43.90
52769;DHT22;40471;44.534;18.644;2024-03-02T11:46:05;27.80;45.30
52769;DHT22;40471;44.534;18.644;2024-03-02T11:48:32;27.80;43.00
52769;DHT22;40471;44.534;18.644;2024-03-02T11:50:59;27.30;44.20
52769;DHT22;40471;44.534;18.644;2024-03-02T11:53:27;27.20;44.60
52769;DHT22;40471;44.534;18.644;2024-03-02T11:55:55;27.40;43.90
52769;DHT22;40471;44.534;18.644;2024-03-02T11:58:21;27.60;44.80
52769;DHT22;40471;44.534;18.644;2024-03-02T12:00:53;27.50;43.20
52769;DHT22;40471;44.534;18.644;2024-03-02T12:03:22;27.00;45.00
52769;DHT22;40471;44.534;18.644;2024-03-02T12:05:54;27.10;43.20
52769;DHT22;40471;44.534;18.644;2024-03-02T12:08:21;27.30;43.30
52769;DHT22;40471;44.534;18.644;2024-03-02T12:10:58;26.90;44.20
52769;DHT22;40471;44.534;18.644;2024-03-02T12:13:24;26.30;43.90
52769;DHT22;40471;44.534;18.644;2024-03-02T12:15:53;26.10;44.10
52769;DHT22;40471;44.534;18.644;2024-03-02T12:18:20;25.70;44.40
52769;DHT22;40471;44.534;18.644;2024-03-02T12:20:49;25.60;45.10
52769;DHT22;40471;44.534;18.644;2024-03-02T12:23:15;26.10;45.30
52769;DHT22;40471;44.534;18.644;2024-03-02T12:25:41;26.60;45.90
52769;DHT22;40471;44.534;18.644;2024-03-02T12:28:07;27.00;45.20
52769;DHT22;40471;44.534;18.644;2024-03-02T12:30:35;27.10;44.20
52769;DHT22;40471;44.534;18.644;2024-03-02T12:33:01;27.30;43.40
52769;DHT22;40471;44.534;18.644;2024-03-02T12:35:27;27.10;43.80
52769;DHT22;40471;44.534;18.644;2024-03-02T12:37:54;27.30;43.80
52769;DHT22;40471;44.534;18.644;2024-03-02T12:40:21;27.50;44.70
52769;DHT22;40471;44.534;18.644;2024-03-02T12:42:48;27.70;44.30
52769;DHT22;40471;44.534;18.644;2024-03-02T12:45:15;27.90;43.60
52769;DHT22;40471;44.534;18.644;2024-03-02T12:47:42;28.00;44.40
52769;DHT22;40471;44.534;18.644;2024-03-02T12:50:08;28.00;44.30
52769;DHT22;40471;44.534;18.644;2024-03-02T12:52:35;27.90;43.40
52769;DHT22;40471;44.534;18.644;2024-03-02T12:55:04;27.80;44.00
52769;DHT22;40471;44.534;18.644;2024-03-02T12:57:31;27.80;44.40
52769;DHT22;40471;44.534;18.644;2024-03-02T13:00:07;28.00;43.70
52769;DHT22;40471;44.534;18.644;2024-03-02T13:02:39;28.20;42.80
52769;DHT22;40471;44.534;18.644;2024-03-02T13:05:07;28.20;43.00
52769;DHT22;40471;44.534;18.644;2024-03-02T13:07:39;28.50;43.00
52769;DHT22;40471;44.534;18.644;2024-03-02T13:10:05;28.50;43.40
52769;DHT22;40471;44.534;18.644;2024-03-02T13:12:33;28.30;42.40
52769;DHT22;40471;44.534;18.644;2024-03-02T13:14:58;28.20;43.10
52769;DHT22;40471;44.534;18.644;2024-03-02T13:17:24;28.00;42.50
52769;DHT22;40471;44.534;18.644;2024-03-02T13:19:58;27.60;42.90
52769;DHT22;40471;44.534;18.644;2024-03-02T13:22:25;27.40;43.00
52769;DHT22;40471;44.534;18.644;2024-03-02T13:24:51;26.80;43.30
52769;DHT22;40471;44.534;18.644;2024-03-02T13:27:19;26.10;44.40
52769;DHT22;40471;44.534;18.644;2024-03-02T13:29:48;25.70;45.40
52769;DHT22;40471;44.534;18.644;2024-03-02T13:32:16;25.50;44.80
52769;DHT22;40471;44.534;18.644;2024-03-02T13:34:43;25.40;45.40
52769;DHT22;40471;44.534;18.644;2024-03-02T13:37:09;25.20;45.00
52769;DHT22;40471;44.534;18.644;2024-03-02T13:39:35;25.10;45.30
52769;DHT22;40471;44.534;18.644;2024-03-02T13:42:09;24.80;45.40
52769;DHT22;40471;44.534;18.644;2024-03-02T13:44:36;24.50;46.40
52769;DHT22;40471;44.534;18.644;2024-03-02T13:47:03;24.30;45.70
52769;DHT22;40471;44.534;18.644;2024-03-02T13:49:29;24.20;45.70
52769;DHT22;40471;44.534;18.644;2024-03-02T13:52:06;24.20;45.30
52769;DHT22;40471;44.534;18.644;2024-03-02T13:54:46;24.30;45.40
52769;DHT22;40471;44.534;18.644;2024-03-02T13:57:12;24.20;45.50
52769;DHT22;40471;44.534;18.644;2024-03-02T13:59:39;24.10;45.70
52769;DHT22;40471;44.534;18.644;2024-03-02T14:02:06;23.70;46.20
52769;DHT22;40471;44.534;18.644;2024-03-02T14:04:34;23.60;46.20
52769;DHT22;40471;44.534;18.644;2024-03-02T14:07:01;23.20;46.30
52769;DHT22;40471;44.534;18.644;2024-03-02T14:09:27;23.00;47.40
52769;DHT22;40471;44.534;18.644;2024-03-02T14:11:53;23.00;47.20
52769;DHT22;40471;44.534;18.644;2024-03-02T14:14:20;22.90;46.60
52769;DHT22;40471;44.534;18.644;2024-03-02T14:16:46;22.60;47.50
52769;DHT22;40471;44.534;18.644;2024-03-02T14:19:12;22.40;47.40
52769;DHT22;40471;44.534;18.644;2024-03-02T14:21:39;22.40;48.10
52769;DHT22;40471;44.534;18.644;2024-03-02T14:24:05;22.30;47.90
52769;DHT22;40471;44.534;18.644;2024-03-02T14:26:34;22.30;47.50
52769;DHT22;40471;44.534;18.644;2024-03-02T14:29:00;22.20;48.00
52769;DHT22;40471;44.534;18.644;2024-03-02T14:31:29;22.20;47.70
52769;DHT22;40471;44.534;18.644;2024-03-02T14:33:56;22.20;46.90
52769;DHT22;40471;44.534;18.644;2024-03-02T14:36:22;22.10;47.40
52769;DHT22;40471;44.534;18.644;2024-03-02T14:38:48;22.20;47.20
52769;DHT22;40471;44.534;18.644;2024-03-02T14:41:14;22.30;47.90
52769;DHT22;40471;44.534;18.644;2024-03-02T14:43:40;22.40;47.80
52769;DHT22;40471;44.534;18.644;2024-03-02T14:46:06;22.50;48.20
52769;DHT22;40471;44.534;18.644;2024-03-02T14:48:35;22.60;47.90
52769;DHT22;40471;44.534;18.644;2024-03-02T14:51:02;22.60;48.10
52769;DHT22;40471;44.534;18.644;2024-03-02T14:53:27;22.50;49.80
52769;DHT22;40471;44.534;18.644;2024-03-02T14:55:54;22.10;51.90
52769;DHT22;40471;44.534;18.644;2024-03-02T14:58:20;21.90;52.20
52769;DHT22;40471;44.534;18.644;2024-03-02T15:00:46;21.90;52.50
52769;DHT22;40471;44.534;18.644;2024-03-02T15:03:12;21.70;52.50
52769;DHT22;40471;44.534;18.644;2024-03-02T15:05:38;21.70;52.90
52769;DHT22;40471;44.534;18.644;2024-03-02T15:08:06;21.80;52.90
52769;DHT22;40471;44.534;18.644;2024-03-02T15:10:32;21.70;53.30
52769;DHT22;40471;44.534;18.644;2024-03-02T15:12:58;21.60;53.50
52769;DHT22;40471;44.534;18.644;2024-03-02T15:15:24;21.50;54.80
52769;DHT22;40471;44.534;18.644;2024-03-02T15:17:50;21.30;55.80
52769;DHT22;40471;44.534;18.644;2024-03-02T15:20:17;21.10;56.10
52769;DHT22;40471;44.534;18.644;2024-03-02T15:22:43;21.10;56.40
52769;DHT22;40471;44.534;18.644;2024-03-02T15:25:14;21.10;56.80